Time;durP1;ratioP1;P1;durP2;ratioP2;P2;SDS_P1;SDS_P2;PMS_P1;PMS_P2;Temp;Humidity;BMP_temperature;BMP_pressure;BME280_temperature;BME280_humidity;BME280_pressure;Samples;Min_cycle;Max_cycle;Signal;HPM_P1;HPM_P2
2022/04/14 00:01:56;;;;;;;;;;;;;;;17.63;55.52;100963.59;4984071;28;7028;-75
2022/04/14 00:04:21;;;;;;;;;;;;;;;17.63;55.46;100962.72;4980342;28;6823;-75
2022/04/14 00:06:47;;;;;;;;;;;;;;;17.63;55.15;100965.31;4978663;28;6839;-75
2022/04/14 00:09:13;;;;;;;;;;;;;;;17.62;55.37;100959.25;4967238;28;6792;-75
2022/04/14 00:11:38;;;;;;;;;;;;;;;17.61;55.36;100959.19;4981226;28;7279;-75
2022/04/14 00:14:05;;;;;;;;;;;;;;;17.58;55.58;100965.19;4981001;28;6894;-75
2022/04/14 00:16:31;;;;;;;;;;;;;;;17.56;55.45;100966.84;4980606;28;6800;-75
2022/04/14 00:18:57;;;;;;;;;;;;;;;17.51;55.66;100971.03;4996306;28;6835;-75
2022/04/14 00:21:23;;;;;;;;;;;;;;;17.48;55.72;100966.63;4981173;28;7655;-75
2022/04/14 00:23:49;;;;;;;;;;;;;;;17.46;55.75;100965.72;4983967;28;6787;-75
2022/04/14 00:26:15;;;;;;;;;;;;;;;17.44;55.80;100966.50;4982273;28;6815;-75
2022/04/14 00:28:41;;;;;;;;;;;;;;;17.42;56.18;100968.16;4980371;28;6804;-75
2022/04/14 00:31:06;;;;;;;;;;;;;;;17.38;56.58;100974.06;4976099;28;7409;-74
2022/04/14 00:33:32;;;;;;;;;;;;;;;17.33;56.63;100966.16;4975128;28;7139;-74
2022/04/14 00:35:58;;;;;;;;;;;;;;;17.28;56.60;100971.22;4997959;28;6898;-74
2022/04/14 00:38:24;;;;;;;;;;;;;;;17.25;56.31;100958.19;4978515;28;7350;-74
2022/04/14 00:40:52;;;;;;;;;;;;;;;17.21;56.56;100956.34;4996666;28;7427;-74
2022/04/14 00:43:20;;;;;;;;;;;;;;;17.15;56.43;100951.88;4978667;28;6987;-74
2022/04/14 00:45:49;;;;;;;;;;;;;;;17.07;57.00;100949.03;4976412;28;6815;-74
2022/04/14 00:48:15;;;;;;;;;;;;;;;17.01;57.09;100945.38;4977194;28;7956;-74
2022/04/14 00:50:41;;;;;;;;;;;;;;;16.93;57.03;100958.94;4995640;28;6818;-74
2022/04/14 00:53:06;;;;;;;;;;;;;;;16.83;57.51;100958.63;4981824;28;6807;-74
2022/04/14 00:55:32;;;;;;;;;;;;;;;16.75;57.57;100964.44;4982401;28;6784;-74
2022/04/14 00:57:58;;;;;;;;;;;;;;;16.68;57.74;100977.13;4964866;28;6985;-74
2022/04/14 01:00:24;;;;;;;;;;;;;;;16.62;58.14;100967.47;4979638;28;7222;-74
2022/04/14 01:02:49;;;;;;;;;;;;;;;16.59;58.41;100973.41;4978432;28;6776;-74
2022/04/14 01:05:16;;;;;;;;;;;;;;;16.56;58.21;100973.28;4980160;28;6784;-74
2022/04/14 01:07:45;;;;;;;;;;;;;;;16.55;58.28;100971.53;4981144;28;6815;-74
2022/04/14 01:10:12;;;;;;;;;;;;;;;16.54;58.61;100963.75;4979623;28;6891;-74
2022/04/14 01:12:37;;;;;;;;;;;;;;;16.55;58.75;100968.09;4998440;28;6978;-74
2022/04/14 01:15:04;;;;;;;;;;;;;;;16.52;58.89;100969.75;4977923;28;8759;-74
2022/04/14 01:17:29;;;;;;;;;;;;;;;16.51;59.36;100967.09;4979333;28;6832;-74
2022/04/14 01:19:55;;;;;;;;;;;;;;;16.50;59.27;100971.38;4979747;28;6803;-75
2022/04/14 01:22:54;;;;;;;;;;;;;;;16.46;59.16;100974.72;4981799;28;6878;-75
2022/04/14 01:25:20;;;;;;;;;;;;;;;16.43;58.83;100971.13;4979410;28;6820;-75
2022/04/14 01:27:46;;;;;;;;;;;;;;;16.40;59.28;100973.63;4996035;28;7163;-75
2022/04/14 01:30:11;;;;;;;;;;;;;;;16.37;59.10;100969.22;4992314;28;6792;-75
2022/04/14 01:32:37;;;;;;;;;;;;;;;16.33;59.06;100960.50;4981430;28;6803;-75
2022/04/14 01:35:03;;;;;;;;;;;;;;;16.33;59.36;100967.38;4981281;28;6799;-75
2022/04/14 01:37:29;;;;;;;;;;;;;;;16.31;59.07;100959.56;4980824;28;7403;-75
2022/04/14 01:39:54;;;;;;;;;;;;;;;16.29;59.18;100968.09;4955647;28;6953;-75
2022/04/14 01:42:20;;;;;;;;;;;;;;;16.26;59.50;100968.88;4980183;28;6799;-75
2022/04/14 01:44:46;;;;;;;;;;;;;;;16.23;59.26;100972.25;4977384;28;6783;-75
2022/04/14 01:47:12;;;;;;;;;;;;;;;16.21;59.46;100973.88;4980432;28;6808;-75
2022/04/14 01:49:37;;;;;;;;;;;;;;;16.18;59.32;100968.63;4979790;28;7224;-75
2022/04/14 01:52:03;;;;;;;;;;;;;;;16.16;59.70;100970.28;4980240;28;6827;-75
2022/04/14 01:54:29;;;;;;;;;;;;;;;16.15;59.41;100970.22;4982200;28;6949;-75
2022/04/14 01:56:55;;;;;;;;;;;;;;;16.16;59.49;100971.97;4996354;28;6871;-75
2022/04/14 01:59:20;;;;;;;;;;;;;;;16.17;59.49;100972.03;4981021;28;6868;-75
2022/04/14 02:01:46;;;;;;;;;;;;;;;16.19;59.24;100972.94;4996559;28;6792;-75
2022/04/14 02:04:12;;;;;;;;;;;;;;;16.19;59.54;100967.78;4980390;28;6883;-74
2022/04/14 02:06:37;;;;;;;;;;;;;;;16.23;59.71;100973.94;4980876;28;6807;-75
2022/04/14 02:09:03;;;;;;;;;;;;;;;16.26;59.34;100958.53;4979284;28;7037;-75
2022/04/14 02:11:29;;;;;;;;;;;;;;;16.31;59.63;100961.25;4978041;28;7200;-75
2022/04/14 02:13:55;;;;;;;;;;;;;;;16.35;59.82;100969.16;4981838;28;6787;-75
2022/04/14 02:16:20;;;;;;;;;;;;;;;16.37;59.62;100969.22;4980742;28;7526;-75
2022/04/14 02:18:46;;;;;;;;;;;;;;;16.36;60.05;100970.06;4962007;28;6868;-75
2022/04/14 02:21:12;;;;;;;;;;;;;;;16.33;59.53;100967.38;4982109;28;6796;-76
2022/04/14 02:23:37;;;;;;;;;;;;;;;16.31;59.59;100967.31;4974440;28;8893;-76
2022/04/14 02:26:03;;;;;;;;;;;;;;;16.31;59.68;100959.56;4976954;28;7112;-76
2022/04/14 02:28:29;;;;;;;;;;;;;;;16.32;60.08;100952.66;4982260;28;6815;-75
2022/04/14 02:30:54;;;;;;;;;;;;;;;16.32;59.84;100944.91;4981135;28;7099;-75
2022/04/14 02:33:20;;;;;;;;;;;;;;;16.33;59.75;100933.75;4982671;28;6893;-75
2022/04/14 02:35:46;;;;;;;;;;;;;;;16.36;59.74;100949.38;4980043;28;6808;-75
2022/04/14 02:38:12;;;;;;;;;;;;;;;16.37;59.78;100959.78;4957139;28;7241;-75
2022/04/14 02:40:38;;;;;;;;;;;;;;;16.40;59.58;100965.88;4978395;28;6808;-75
2022/04/14 02:43:04;;;;;;;;;;;;;;;16.39;59.61;100954.63;4997139;28;6861;-75
2022/04/14 02:45:30;;;;;;;;;;;;;;;16.37;59.25;100951.13;4968195;28;6792;-75
2022/04/14 02:47:56;;;;;;;;;;;;;;;16.36;59.65;100944.19;4981243;28;6792;-75
2022/04/14 02:50:22;;;;;;;;;;;;;;;16.35;59.44;100942.44;4978653;28;6787;-75
2022/04/14 02:52:49;;;;;;;;;;;;;;;16.32;59.81;100953.56;4978868;28;7180;-75
2022/04/14 02:55:17;;;;;;;;;;;;;;;16.32;59.69;100950.06;4963616;28;6896;-75
2022/04/14 02:57:43;;;;;;;;;;;;;;;16.31;59.97;100945.75;4980605;28;8726;-75
2022/04/14 03:00:10;;;;;;;;;;;;;;;16.30;59.82;100943.97;4976775;28;6808;-75
2022/04/14 03:02:37;;;;;;;;;;;;;;;16.28;59.96;100941.38;4977913;28;6808;-75
2022/04/14 03:05:04;;;;;;;;;;;;;;;16.28;60.08;100940.47;4980531;28;6980;-75
2022/04/14 03:07:30;;;;;;;;;;;;;;;16.27;59.93;100943.88;4967328;28;7511;-75
2022/04/14 03:09:56;;;;;;;;;;;;;;;16.27;59.63;100943.88;4979424;28;6816;-76
2022/04/14 03:12:22;;;;;;;;;;;;;;;16.24;59.79;100953.31;4966607;28;6934;-75
2022/04/14 03:14:48;;;;;;;;;;;;;;;16.22;60.08;100962.72;4983440;28;6788;-76
2022/04/14 03:17:14;;;;;;;;;;;;;;;16.23;60.12;100961.91;5000164;28;6965;-76
2022/04/14 03:19:40;;;;;;;;;;;;;;;16.21;60.06;100955.78;4981573;28;7381;-76
2022/04/14 03:22:05;;;;;;;;;;;;;;;16.19;59.89;100951.41;4979590;28;6788;-76
2022/04/14 03:24:31;;;;;;;;;;;;;;;16.18;59.99;100954.81;4985962;28;6795;-75
2022/04/14 03:26:57;;;;;;;;;;;;;;;16.17;60.72;100951.34;4978948;28;6792;-75
2022/04/14 03:29:24;;;;;;;;;;;;;;;16.17;60.00;100956.50;4976987;28;6824;-75
2022/04/14 03:31:49;;;;;;;;;;;;;;;16.17;59.98;100947.88;4982311;28;7014;-75
2022/04/14 03:34:15;;;;;;;;;;;;;;;16.16;60.21;100947.00;4979999;28;6907;-75
2022/04/14 03:36:41;;;;;;;;;;;;;;;16.15;60.00;100945.25;4969772;28;6978;-75
2022/04/14 03:39:07;;;;;;;;;;;;;;;16.12;60.20;100945.13;4980458;28;6795;-75
2022/04/14 03:41:33;;;;;;;;;;;;;;;16.10;60.11;100950.25;4959435;28;6776;-74
2022/04/14 03:43:59;;;;;;;;;;;;;;;16.10;60.22;100945.09;4979781;28;6800;-77
2022/04/14 03:46:25;;;;;;;;;;;;;;;16.13;60.02;100951.19;4984483;28;6878;-75
2022/04/14 03:48:50;;;;;;;;;;;;;;;16.13;59.74;100954.66;4999879;28;7627;-75
2022/04/14 03:51:16;;;;;;;;;;;;;;;16.14;60.08;100965.88;4979085;28;6819;-75
2022/04/14 03:53:42;;;;;;;;;;;;;;;16.13;59.58;100967.59;4999530;28;6787;-75
2022/04/14 03:56:08;;;;;;;;;;;;;;;16.13;60.10;100967.59;4980616;28;7384;-75
2022/04/14 03:58:34;;;;;;;;;;;;;;;16.13;59.57;100972.75;4981515;28;7009;-75
2022/04/14 04:01:00;;;;;;;;;;;;;;;16.13;59.99;100974.47;4964443;28;8727;-75
2022/04/14 04:03:25;;;;;;;;;;;;;;;16.11;59.74;100969.22;4981554;28;6784;-75
2022/04/14 04:05:52;;;;;;;;;;;;;;;16.09;60.42;100968.28;4973919;28;6779;-75
2022/04/14 04:08:18;;;;;;;;;;;;;;;16.09;60.49;100976.06;4946210;28;6977;-75
2022/04/14 04:10:45;;;;;;;;;;;;;;;16.08;60.55;100972.59;4958941;28;6804;-75
2022/04/14 04:13:11;;;;;;;;;;;;;;;16.07;60.08;100972.53;4962303;28;7261;-75
2022/04/14 04:15:37;;;;;;;;;;;;;;;16.07;59.96;100973.41;4958096;28;10296;-75
2022/04/14 04:18:04;;;;;;;;;;;;;;;16.06;60.12;100978.53;4967093;28;6985;-75
2022/04/14 04:20:32;;;;;;;;;;;;;;;16.03;60.31;100975.81;4971227;28;7196;-75
2022/04/14 04:22:57;;;;;;;;;;;;;;;16.01;59.88;100983.56;4983825;28;6860;-75
2022/04/14 04:25:23;;;;;;;;;;;;;;;15.98;60.09;100979.97;4982725;28;6851;-75
2022/04/14 04:27:49;;;;;;;;;;;;;;;15.96;59.77;100988.56;4981110;28;6968;-75
2022/04/14 04:30:15;;;;;;;;;;;;;;;15.92;59.74;100984.09;4998321;28;6819;-75
2022/04/14 04:32:41;;;;;;;;;;;;;;;15.90;60.18;100980.56;4978887;28;6851;-75
2022/04/14 04:35:09;;;;;;;;;;;;;;;15.87;59.81;100983.03;4983414;28;6791;-75
2022/04/14 04:37:35;;;;;;;;;;;;;;;15.85;60.26;100976.94;4983290;28;7091;-75
2022/04/14 04:40:02;;;;;;;;;;;;;;;15.82;60.59;100977.69;4963503;28;7065;-75
2022/04/14 04:42:27;;;;;;;;;;;;;;;15.80;60.09;100979.34;4995063;28;7031;-75
2022/04/14 04:44:53;;;;;;;;;;;;;;;15.78;60.37;100983.56;4985399;28;6871;-75
2022/04/14 04:47:21;;;;;;;;;;;;;;;15.78;59.88;100993.03;4963568;28;6796;-75
2022/04/14 04:49:47;;;;;;;;;;;;;;;15.77;60.16;100986.13;4984047;28;6896;-75
2022/04/14 04:52:15;;;;;;;;;;;;;;;15.77;59.96;100993.88;4981759;28;6796;-75
2022/04/14 04:54:40;;;;;;;;;;;;;;;15.76;60.61;100986.94;4977369;28;6888;-75
2022/04/14 04:57:06;;;;;;;;;;;;;;;15.76;60.86;100992.13;4961586;28;6787;-75
2022/04/14 04:59:33;;;;;;;;;;;;;;;15.75;60.22;100992.94;4984233;28;7687;-75
2022/04/14 05:01:59;;;;;;;;;;;;;;;15.72;60.49;101005.72;4981324;28;6823;-75
2022/04/14 05:04:25;;;;;;;;;;;;;;;15.70;60.91;100997.94;4982343;28;7876;-75
2022/04/14 05:06:51;;;;;;;;;;;;;;;15.72;60.50;101000.56;4965123;28;8051;-75
2022/04/14 05:09:16;;;;;;;;;;;;;;;15.71;60.79;100998.81;4982529;28;6847;-75
2022/04/14 05:11:43;;;;;;;;;;;;;;;15.71;60.54;100999.69;4985174;28;6787;-75
2022/04/14 05:14:09;;;;;;;;;;;;;;;15.71;60.37;101006.56;4981431;28;7173;-75
2022/04/14 05:16:36;;;;;;;;;;;;;;;15.70;60.71;101008.28;4979037;28;6896;-75
2022/04/14 05:19:02;;;;;;;;;;;;;;;15.71;60.77;101014.31;4983902;28;8703;-75
2022/04/14 05:21:28;;;;;;;;;;;;;;;15.71;60.39;101014.31;4985778;28;6804;-75
2022/04/14 05:23:54;;;;;;;;;;;;;;;15.69;60.94;101009.97;4988422;28;6930;-75
2022/04/14 05:26:21;;;;;;;;;;;;;;;15.69;60.31;101007.38;4986052;28;6863;-75
2022/04/14 05:28:46;;;;;;;;;;;;;;;15.71;60.75;101015.19;4982378;28;6958;-75
2022/04/14 05:31:12;;;;;;;;;;;;;;;15.72;60.37;101008.31;4979093;28;6852;-75
2022/04/14 05:33:38;;;;;;;;;;;;;;;15.73;60.28;101018.72;4982845;28;6891;-75
2022/04/14 05:36:04;;;;;;;;;;;;;;;15.76;60.55;101015.38;4973536;28;7173;-75
2022/04/14 05:38:30;;;;;;;;;;;;;;;15.77;60.56;101019.72;4973395;28;7182;-75
2022/04/14 05:40:56;;;;;;;;;;;;;;;15.79;60.35;101018.06;4981222;28;6859;-75
2022/04/14 05:43:28;;;;;;;;;;;;;;;15.81;60.42;101018.97;4975174;28;6933;-75
2022/04/14 05:45:59;;;;;;;;;;;;;;;15.85;60.55;101027.72;4977182;28;7223;-75
2022/04/14 05:48:24;;;;;;;;;;;;;;;15.87;60.93;101021.81;4982504;28;7066;-75
2022/04/14 05:50:50;;;;;;;;;;;;;;;15.89;60.67;101025.31;4978294;28;6922;-75
2022/04/14 05:53:17;;;;;;;;;;;;;;;15.93;60.94;101023.75;4993078;28;7583;-75
2022/04/14 05:55:44;;;;;;;;;;;;;;;15.96;60.49;101024.75;4982174;28;8646;-75
2022/04/14 05:58:12;;;;;;;;;;;;;;;16.00;60.59;101027.44;4978410;28;7208;-75
2022/04/14 06:00:38;;;;;;;;;;;;;;;16.01;60.31;101036.94;4979722;28;6964;-77
2022/04/14 06:03:05;;;;;;;;;;;;;;;16.01;60.68;101039.53;4976609;28;6799;-78
2022/04/14 06:05:32;;;;;;;;;;;;;;;16.00;60.67;101037.78;4981809;28;6792;-78
2022/04/14 06:07:58;;;;;;;;;;;;;;;16.00;60.74;101038.66;4981329;28;6930;-78
2022/04/14 06:10:26;;;;;;;;;;;;;;;16.01;60.66;101037.84;4985515;28;6803;-78
2022/04/14 06:12:55;;;;;;;;;;;;;;;16.01;60.36;101040.44;4981698;28;7075;-78
2022/04/14 06:15:21;;;;;;;;;;;;;;;16.00;60.55;101038.66;4984152;28;7594;-78
2022/04/14 06:17:47;;;;;;;;;;;;;;;15.99;60.92;101039.50;4981082;28;6800;-78
2022/04/14 06:20:14;;;;;;;;;;;;;;;16.01;60.79;101050.78;4983015;28;6788;-78
2022/04/14 06:22:42;;;;;;;;;;;;;;;16.03;60.84;101054.28;4978633;28;6879;-78
2022/04/14 06:25:16;;;;;;;;;;;;;;;16.03;61.06;101058.56;4983615;28;6800;-76
2022/04/14 06:27:46;;;;;;;;;;;;;;;16.05;60.44;101056.94;4992684;28;6832;-76
2022/04/14 06:30:16;;;;;;;;;;;;;;;16.06;60.74;101053.53;4977917;28;7226;-76
2022/04/14 06:32:54;;;;;;;;;;;;;;;16.06;60.85;101058.69;4959247;28;7193;-76
2022/04/14 06:35:19;;;;;;;;;;;;;;;16.05;60.71;101067.28;4978377;28;7241;-76
2022/04/14 06:37:45;;;;;;;;;;;;;;;16.07;60.98;101073.38;4992323;28;6906;-76
2022/04/14 06:40:11;;;;;;;;;;;;;;;16.07;60.82;101070.78;4974430;28;6808;-76
2022/04/14 06:42:37;;;;;;;;;;;;;;;16.09;61.31;101069.13;4962340;28;6986;-75
2022/04/14 06:45:03;;;;;;;;;;;;;;;16.09;60.94;101069.13;4978400;28;6812;-75
2022/04/14 06:47:28;;;;;;;;;;;;;;;16.11;60.64;101067.47;4977695;28;7845;-75
2022/04/14 06:49:55;;;;;;;;;;;;;;;16.14;61.21;101072.78;4973633;28;6999;-75
2022/04/14 06:52:22;;;;;;;;;;;;;;;16.18;61.14;101069.47;4943128;28;7012;-75
2022/04/14 06:54:48;;;;;;;;;;;;;;;16.22;60.85;101079.13;4991749;28;7235;-75
2022/04/14 06:57:15;;;;;;;;;;;;;;;16.25;61.23;101080.91;4994277;28;7868;-75
2022/04/14 06:59:40;;;;;;;;;;;;;;;16.30;61.16;101081.97;4976373;28;8378;-75
2022/04/14 07:02:07;;;;;;;;;;;;;;;16.32;60.88;101082.88;4978967;28;6800;-75
2022/04/14 07:04:33;;;;;;;;;;;;;;;16.37;61.13;101088.22;4996632;28;7114;-75
2022/04/14 07:06:59;;;;;;;;;;;;;;;16.42;61.52;101093.56;4994484;28;6779;-75
2022/04/14 07:09:24;;;;;;;;;;;;;;;16.47;61.11;101092.88;4960758;28;7877;-75
2022/04/14 07:11:50;;;;;;;;;;;;;;;16.52;60.95;101087.88;4979966;28;7001;-75
2022/04/14 07:14:16;;;;;;;;;;;;;;;16.60;61.38;101093.31;4979633;28;6780;-75
2022/04/14 07:16:42;;;;;;;;;;;;;;;16.65;61.22;101090.03;4976467;28;6792;-75
2022/04/14 07:19:08;;;;;;;;;;;;;;;16.72;61.13;101093.75;4992715;28;6950;-75
2022/04/14 07:21:33;;;;;;;;;;;;;;;16.80;60.93;101091.41;4970724;28;7514;-75
2022/04/14 07:23:59;;;;;;;;;;;;;;;16.86;61.11;101089.03;4994016;28;6943;-75
2022/04/14 07:26:25;;;;;;;;;;;;;;;16.95;61.35;101088.44;4977082;28;7022;-75
2022/04/14 07:28:50;;;;;;;;;;;;;;;17.02;60.95;101079.19;4964503;28;7221;-76
2022/04/14 07:31:16;;;;;;;;;;;;;;;17.10;60.79;101082.06;4982884;28;6913;-76
2022/04/14 07:33:42;;;;;;;;;;;;;;;17.19;60.81;101090.09;4980308;28;6887;-76
2022/04/14 07:36:08;;;;;;;;;;;;;;;17.28;61.05;101085.19;4982423;28;6962;-76
2022/04/14 07:38:34;;;;;;;;;;;;;;;17.38;60.84;101086.38;4979718;28;6787;-76
2022/04/14 07:41:05;;;;;;;;;;;;;;;17.47;60.52;101084.06;4997467;28;6795;-76
2022/04/14 07:43:32;;;;;;;;;;;;;;;17.61;60.65;101091.38;4979954;28;6812;-76
2022/04/14 07:45:57;;;;;;;;;;;;;;;17.72;60.33;101087.41;4980672;28;6804;-76
2022/04/14 07:48:23;;;;;;;;;;;;;;;17.84;60.16;101089.47;4979239;28;6816;-76
2022/04/14 07:50:49;;;;;;;;;;;;;;;17.96;60.11;101083.75;4978731;28;6792;-76
2022/04/14 07:53:15;;;;;;;;;;;;;;;18.07;59.06;101088.41;4980583;28;6815;-76
2022/04/14 07:55:41;;;;;;;;;;;;;;;18.16;58.84;101089.56;4968982;28;6954;-76
2022/04/14 07:58:07;;;;;;;;;;;;;;;18.24;58.48;101087.16;4980837;28;6982;-76
2022/04/14 08:00:36;;;;;;;;;;;;;;;18.32;58.72;101089.94;4981709;28;6978;-76
2022/04/14 08:03:04;;;;;;;;;;;;;;;18.40;57.90;101092.78;4968007;28;6820;-75
2022/04/14 08:05:36;;;;;;;;;;;;;;;18.49;58.04;101092.97;4981592;28;7045;-75
2022/04/14 08:08:08;;;;;;;;;;;;;;;18.60;57.35;101091.56;4985677;28;7154;-75
2022/04/14 08:10:34;;;;;;;;;;;;;;;18.70;57.28;101092.69;4982992;28;6816;-75
2022/04/14 08:13:01;;;;;;;;;;;;;;;18.81;57.04;101099.84;4982553;28;8709;-75
2022/04/14 08:15:29;;;;;;;;;;;;;;;18.92;56.25;101101.00;4962300;28;7236;-75
2022/04/14 08:17:55;;;;;;;;;;;;;;;19.03;56.62;101100.44;4981389;28;7023;-75
2022/04/14 08:20:21;;;;;;;;;;;;;;;19.11;56.70;101098.88;4985846;28;6871;-75
2022/04/14 08:22:54;;;;;;;;;;;;;;;19.25;56.45;101097.50;5000114;28;7185;-75
2022/04/14 08:25:33;;;;;;;;;;;;;;;19.40;55.44;101102.16;4983405;28;6807;-75
2022/04/14 08:28:03;;;;;;;;;;;;;;;19.53;55.33;101095.53;4976608;28;6816;-75
2022/04/14 08:30:31;;;;;;;;;;;;;;;19.65;55.09;101097.53;4985445;28;6803;-75
2022/04/14 08:33:01;;;;;;;;;;;;;;;19.79;55.21;101108.19;4984060;28;7065;-75
2022/04/14 08:35:27;;;;;;;;;;;;;;;19.94;54.91;101107.69;4967216;28;6992;-75
2022/04/14 08:37:54;;;;;;;;;;;;;;;20.12;54.75;101095.88;5000469;28;6988;-75
2022/04/14 08:40:22;;;;;;;;;;;;;;;20.32;54.53;101111.00;4973675;28;6975;-75
2022/04/14 08:43:03;;;;;;;;;;;;;;;20.50;54.36;101110.50;4982203;28;6828;-75
2022/04/14 08:45:48;;;;;;;;;;;;;;;20.66;53.51;101115.09;4998143;28;7010;-75
2022/04/14 08:48:15;;;;;;;;;;;;;;;20.75;53.15;101109.19;4968247;28;6974;-75
2022/04/14 08:50:46;;;;;;;;;;;;;;;20.84;52.74;101105.03;4979104;28;7856;-75
2022/04/14 08:53:12;;;;;;;;;;;;;;;20.91;52.92;101106.91;4982803;28;6833;-75
2022/04/14 08:55:42;;;;;;;;;;;;;;;20.97;52.41;101100.91;4980286;28;7212;-75
2022/04/14 08:58:16;;;;;;;;;;;;;;;21.02;52.05;101104.44;4983736;28;6800;-75
2022/04/14 09:00:43;;;;;;;;;;;;;;;21.08;52.05;101096.72;4979762;28;6887;-75
2022/04/14 09:03:08;;;;;;;;;;;;;;;21.17;52.22;101094.28;4983645;28;7273;-75
2022/04/14 09:05:34;;;;;;;;;;;;;;;21.31;52.26;101101.41;4982119;28;6942;-75
2022/04/14 09:08:00;;;;;;;;;;;;;;;21.48;52.33;101099.94;4962403;28;6808;-75
2022/04/14 09:10:27;;;;;;;;;;;;;;;21.73;52.19;101094.19;4978298;28;6788;-75
2022/04/14 09:12:53;;;;;;;;;;;;;;;22.03;51.83;101096.31;4967002;28;6823;-75
2022/04/14 09:15:20;;;;;;;;;;;;;;;22.33;51.56;101087.06;4983332;28;7185;-75
2022/04/14 09:17:46;;;;;;;;;;;;;;;22.61;50.65;101086.47;4984209;28;7023;-75
2022/04/14 09:20:40;;;;;;;;;;;;;;;22.76;49.21;101085.72;4981995;28;7038;-75
2022/04/14 09:23:21;;;;;;;;;;;;;;;22.75;49.18;101091.81;4967326;28;7331;-75
2022/04/14 09:26:04;;;;;;;;;;;;;;;22.69;49.11;101083.91;4964306;28;7274;-75
2022/04/14 09:28:30;;;;;;;;;;;;;;;22.71;49.27;101082.22;4982871;28;6820;-74
2022/04/14 09:31:14;;;;;;;;;;;;;;;22.87;49.40;101083.22;4968275;28;7204;-74
2022/04/14 09:33:51;;;;;;;;;;;;;;;23.11;49.56;101085.13;4984395;28;6831;-75
2022/04/14 09:36:20;;;;;;;;;;;;;;;23.39;49.31;101082.72;4985107;28;6963;-75
2022/04/14 09:39:08;;;;;;;;;;;;;;;23.88;48.76;101075.97;4983452;28;6832;-75
2022/04/14 09:41:40;;;;;;;;;;;;;;;24.29;47.52;101071.75;4963014;28;7116;-75
2022/04/14 09:44:14;;;;;;;;;;;;;;;24.86;46.79;101068.28;4985357;28;6792;-75
2022/04/14 09:46:45;;;;;;;;;;;;;;;25.62;45.48;101062.91;4970541;28;6985;-75
2022/04/14 09:49:17;;;;;;;;;;;;;;;26.42;44.20;101063.31;4969682;28;7726;-75
2022/04/14 09:51:45;;;;;;;;;;;;;;;27.20;43.14;101062.66;4965276;28;7135;-75
2022/04/14 09:54:15;;;;;;;;;;;;;;;27.95;42.24;101051.22;4982322;28;6800;-75
2022/04/14 09:57:01;;;;;;;;;;;;;;;28.59;41.37;101047.63;4982981;28;6888;-75
2022/04/14 09:59:29;;;;;;;;;;;;;;;29.21;40.36;101052.69;4981956;28;6812;-76
2022/04/14 10:02:15;;;;;;;;;;;;;;;29.91;38.76;101053.00;4979263;28;6811;-76
2022/04/14 10:04:48;;;;;;;;;;;;;;;30.59;37.91;101051.41;4979222;28;6816;-75
2022/04/14 10:07:23;;;;;;;;;;;;;;;31.10;36.58;101041.31;4982548;28;6820;-75
2022/04/14 10:09:50;;;;;;;;;;;;;;;31.41;35.99;101024.56;4978553;28;6883;-75
2022/04/14 10:12:19;;;;;;;;;;;;;;;31.71;35.03;101021.00;4982882;28;7213;-75
2022/04/14 10:15:02;;;;;;;;;;;;;;;31.86;34.53;101022.34;4984151;28;6792;-75
2022/04/14 10:17:32;;;;;;;;;;;;;;;31.48;34.73;101019.06;4982909;28;7054;-75
2022/04/14 10:19:58;;;;;;;;;;;;;;;31.48;35.12;101019.06;4982356;28;7034;-75
2022/04/14 10:22:26;;;;;;;;;;;;;;;31.88;34.58;101012.59;4982632;28;6800;-75
2022/04/14 10:24:55;;;;;;;;;;;;;;;32.32;33.66;101006.72;4965723;28;7028;-75
2022/04/14 10:27:22;;;;;;;;;;;;;;;32.12;33.31;101010.03;4981188;28;6816;-76
2022/04/14 10:29:50;;;;;;;;;;;;;;;31.55;33.13;101004.72;4980158;28;7305;-77
2022/04/14 10:32:16;;;;;;;;;;;;;;;31.36;33.00;101010.56;4949425;28;7066;-77
2022/04/14 10:34:44;;;;;;;;;;;;;;;31.24;33.03;101013.59;4982540;28;6869;-76
2022/04/14 10:37:21;;;;;;;;;;;;;;;30.72;33.13;101022.91;4983247;28;7063;-76
2022/04/14 10:39:49;;;;;;;;;;;;;;;29.92;33.05;101020.41;4977544;28;6812;-76
2022/04/14 10:42:23;;;;;;;;;;;;;;;29.04;34.09;101008.16;4977168;28;6816;-76
2022/04/14 10:44:51;;;;;;;;;;;;;;;28.28;34.30;101015.63;4982391;28;6971;-76
2022/04/14 10:47:34;;;;;;;;;;;;;;;27.94;34.65;101013.47;4977833;28;6799;-76
2022/04/14 10:50:01;;;;;;;;;;;;;;;28.02;35.15;101010.75;4980776;28;6975;-76
2022/04/14 10:52:28;;;;;;;;;;;;;;;28.29;34.14;101003.31;4979887;28;7198;-76
2022/04/14 10:54:59;;;;;;;;;;;;;;;28.26;33.82;100995.47;4983110;28;7517;-76
2022/04/14 10:57:39;;;;;;;;;;;;;;;27.90;34.77;101005.63;4977137;28;7236;-76
2022/04/14 11:00:20;;;;;;;;;;;;;;;27.44;34.89;101000.97;4980093;28;7027;-76
2022/04/14 11:03:05;;;;;;;;;;;;;;;27.06;35.17;100996.19;4981894;28;6795;-76
2022/04/14 11:05:51;;;;;;;;;;;;;;;26.67;35.07;101002.69;4960558;28;6796;-76
2022/04/14 11:08:31;;;;;;;;;;;;;;;26.40;35.66;101006.41;4981304;28;7050;-76
2022/04/14 11:11:15;;;;;;;;;;;;;;;26.17;36.01;101013.59;4963216;28;6820;-76
2022/04/14 11:13:50;;;;;;;;;;;;;;;26.00;36.25;101013.69;4977594;28;6904;-76
2022/04/14 11:16:46;;;;;;;;;;;;;;;25.85;36.14;101019.91;4977417;28;7212;-76
2022/04/14 11:19:21;;;;;;;;;;;;;;;25.72;35.80;101016.47;4971752;28;7668;-76
2022/04/14 11:22:02;;;;;;;;;;;;;;;25.59;36.28;101034.03;4991835;28;6800;-75
2022/04/14 11:24:40;;;;;;;;;;;;;;;25.45;36.11;101035.81;4978356;28;6815;-75
2022/04/14 11:27:28;;;;;;;;;;;;;;;25.33;35.88;101042.84;4976801;28;8120;-74
2022/04/14 11:29:58;;;;;;;;;;;;;;;25.22;36.45;101042.88;4985953;28;6824;-74
2022/04/14 11:32:41;;;;;;;;;;;;;;;25.12;36.49;101032.44;4983805;28;7283;-74
2022/04/14 11:35:16;;;;;;;;;;;;;;;25.31;36.86;101036.75;4984033;28;8645;-74
2022/04/14 11:37:49;;;;;;;;;;;;;;;26.18;36.93;101041.59;5001844;28;6986;-74
2022/04/14 11:40:23;;;;;;;;;;;;;;;27.51;36.11;101028.06;4980658;28;7240;-75
2022/04/14 11:42:52;;;;;;;;;;;;;;;28.98;34.70;101028.53;4972762;28;7157;-75
2022/04/14 11:45:25;;;;;;;;;;;;;;;30.40;33.10;101021.94;4977474;28;6823;-75
2022/04/14 11:47:59;;;;;;;;;;;;;;;31.63;31.58;101008.00;4977482;28;6891;-75
2022/04/14 11:50:28;;;;;;;;;;;;;;;32.21;30.52;101004.44;4978661;28;6823;-74
2022/04/14 11:53:00;;;;;;;;;;;;;;;32.17;30.08;101008.13;4982151;28;6812;-74
2022/04/14 11:55:42;;;;;;;;;;;;;;;31.50;30.09;101007.50;4982332;28;7006;-75
2022/04/14 11:58:13;;;;;;;;;;;;;;;30.63;30.04;101013.41;4977887;28;6815;-75
2022/04/14 12:00:48;;;;;;;;;;;;;;;30.08;30.91;101007.72;4983653;28;6887;-75
2022/04/14 12:03:16;;;;;;;;;;;;;;;29.60;30.61;101006.16;4977501;28;7923;-75
2022/04/14 12:05:52;;;;;;;;;;;;;;;29.23;30.96;101008.66;4984497;28;6840;-75
2022/04/14 12:08:18;;;;;;;;;;;;;;;29.45;31.08;101007.38;4980922;28;6800;-75
2022/04/14 12:10:44;;;;;;;;;;;;;;;29.70;30.95;100999.78;5000907;28;7203;-75
2022/04/14 12:13:11;;;;;;;;;;;;;;;29.60;30.70;100998.25;4966956;28;6880;-76
2022/04/14 12:15:37;;;;;;;;;;;;;;;29.24;30.50;100999.84;4983544;28;7164;-76
2022/04/14 12:18:11;;;;;;;;;;;;;;;28.80;30.34;101010.34;4981871;28;6878;-76
2022/04/14 12:20:41;;;;;;;;;;;;;;;28.33;31.32;101012.91;4984340;28;6820;-76
2022/04/14 12:23:13;;;;;;;;;;;;;;;27.85;31.31;101009.22;4963921;28;7221;-76
2022/04/14 12:25:39;;;;;;;;;;;;;;;27.41;31.65;101013.28;4978843;28;6815;-76
2022/04/14 12:28:07;;;;;;;;;;;;;;;26.99;31.71;101021.66;4977057;28;6991;-76
2022/04/14 12:30:33;;;;;;;;;;;;;;;26.63;32.36;101024.59;4999367;28;6968;-76
2022/04/14 12:33:04;;;;;;;;;;;;;;;26.32;32.48;101023.13;4982182;28;6816;-76
2022/04/14 12:35:33;;;;;;;;;;;;;;;26.11;32.81;101010.09;4983364;28;6839;-76
2022/04/14 12:38:28;;;;;;;;;;;;;;;25.95;33.73;101019.84;4978751;28;6894;-76
2022/04/14 12:41:04;;;;;;;;;;;;;;;25.96;33.76;101022.47;4982931;28;6831;-76
2022/04/14 12:43:41;;;;;;;;;;;;;;;26.11;33.55;101015.34;4966964;28;6881;-76
2022/04/14 12:46:35;;;;;;;;;;;;;;;26.18;33.51;101012.69;4990914;28;6807;-76
2022/04/14 12:49:08;;;;;;;;;;;;;;;26.21;33.66;101009.19;4980114;28;6830;-76
2022/04/14 12:51:53;;;;;;;;;;;;;;;26.40;34.14;101015.19;4999949;28;6820;-75
2022/04/14 12:54:18;;;;;;;;;;;;;;;26.64;33.25;101010.56;4980430;28;6811;-75
2022/04/14 12:57:07;;;;;;;;;;;;;;;26.67;32.93;101013.19;4974131;28;6842;-75